Terminal Aerodrome Forecast
Issued by NWS Knoxville/Tri Cities, TN

Home | Current Version | Previous Version | Text Only | Print | Product List | Glossary On
Versions: 1 2 3 4 5 6 7 8 9 10 11 12 13 14 15 16 17 18 19 20 21 22 23 24 25 26 27 28 29
420
FTUS44 KMRX 231811 RRA
TAFTYS
TAF
KTYS 231811Z 2318/2418 25007KT P6SM BKN250
     FM240200 VRB04KT P6SM BKN050
     FM241500 22010KT P6SM SCT050 BKN250=

USA.gov is the U.S. government's official web portal to all federal, state and local government web resources and services.